createdAt,value
2018-05-27T00:02:03.201Z,15.93
2018-05-27T00:04:30.964Z,14.97
2018-05-27T00:06:59.059Z,13.40
2018-05-27T00:09:26.964Z,13.40
2018-05-27T00:11:55.263Z,14.73
2018-05-27T00:14:23.322Z,13.10
2018-05-27T00:16:51.710Z,13.60
2018-05-27T00:19:19.759Z,14.13
2018-05-27T00:21:48.492Z,13.77
2018-05-27T00:24:16.841Z,13.40
2018-05-27T00:26:45.137Z,13.63
2018-05-27T00:29:14.058Z,13.20
2018-05-27T00:31:42.552Z,14.70
2018-05-27T00:34:10.645Z,14.70
2018-05-27T00:36:38.386Z,14.20
2018-05-27T00:39:07.685Z,14.40
2018-05-27T00:41:35.921Z,14.77
2018-05-27T00:44:03.985Z,14.53
2018-05-27T00:46:31.874Z,14.50
2018-05-27T00:48:59.964Z,15.50
2018-05-27T00:51:29.401Z,14.40
2018-05-27T00:54:00.573Z,14.87
2018-05-27T00:56:29.284Z,15.37
2018-05-27T00:58:58.380Z,14.43
2018-05-27T01:01:26.747Z,13.70
2018-05-27T01:03:55.759Z,14.57
2018-05-27T01:06:23.596Z,14.50
2018-05-27T01:08:51.540Z,14.80
2018-05-27T01:11:19.999Z,15.30
2018-05-27T01:13:48.969Z,14.83
2018-05-27T01:16:17.231Z,15.80
2018-05-27T01:18:45.753Z,17.27
2018-05-27T01:21:13.969Z,15.97
2018-05-27T01:23:41.756Z,16.40
2018-05-27T01:26:10.316Z,16.10
2018-05-27T01:28:38.492Z,17.30
2018-05-27T01:31:06.208Z,16.60
2018-05-27T01:33:33.959Z,16.93
2018-05-27T01:36:03.054Z,16.73
2018-05-27T01:38:31.219Z,17.33
2018-05-27T01:40:58.928Z,17.37
2018-05-27T01:43:27.580Z,16.87
2018-05-27T01:45:55.700Z,16.67
2018-05-27T01:48:23.670Z,17.03
2018-05-27T01:50:51.741Z,16.37
2018-05-27T01:53:19.411Z,17.60
2018-05-27T01:55:47.975Z,16.90
2018-05-27T01:58:16.049Z,17.90
2018-05-27T02:00:45.419Z,19.70
2018-05-27T02:03:13.116Z,19.90
2018-05-27T02:05:41.023Z,20.00
2018-05-27T02:08:09.911Z,20.10
2018-05-27T02:10:39.539Z,18.40
2018-05-27T02:13:07.768Z,21.40
2018-05-27T02:15:35.469Z,19.97
2018-05-27T02:18:03.626Z,21.33
2018-05-27T02:20:31.928Z,18.60
2018-05-27T02:22:59.603Z,20.87
2018-05-27T02:25:28.571Z,20.93
2018-05-27T02:27:57.610Z,21.43
2018-05-27T02:30:30.460Z,20.87
2018-05-27T02:33:03.541Z,21.73
2018-05-27T02:35:37.458Z,22.90
2018-05-27T02:38:05.152Z,22.60
2018-05-27T02:40:33.022Z,23.47
2018-05-27T02:43:01.237Z,23.10
2018-05-27T02:45:30.125Z,24.30
2018-05-27T02:47:58.477Z,21.80
2018-05-27T02:50:27.183Z,21.93
2018-05-27T02:52:55.798Z,22.00
2018-05-27T02:55:23.533Z,22.50
2018-05-27T02:57:52.657Z,22.37
2018-05-27T03:00:20.911Z,22.10
2018-05-27T03:02:50.349Z,22.93
2018-05-27T03:05:18.911Z,22.80
2018-05-27T03:07:47.054Z,21.93
2018-05-27T03:10:16.391Z,22.30
2018-05-27T03:12:44.262Z,22.47
2018-05-27T03:15:12.832Z,21.90
2018-05-27T03:17:40.875Z,21.43
2018-05-27T03:20:09.717Z,21.40
2018-05-27T03:22:37.976Z,23.83
2018-05-27T03:25:06.124Z,22.40
2018-05-27T03:27:34.204Z,23.40
2018-05-27T03:30:01.899Z,22.50
2018-05-27T03:32:30.139Z,21.67
2018-05-27T03:34:57.973Z,22.33
2018-05-27T03:37:26.044Z,20.40
2018-05-27T03:39:54.364Z,21.83
2018-05-27T03:42:22.589Z,20.30
2018-05-27T03:44:50.585Z,21.33
2018-05-27T03:47:18.361Z,21.00
2018-05-27T03:49:47.253Z,20.57
2018-05-27T03:52:15.327Z,22.83
2018-05-27T03:54:43.503Z,22.03
2018-05-27T03:57:11.555Z,23.20
2018-05-27T03:59:39.531Z,22.03
2018-05-27T04:02:08.355Z,20.83
2018-05-27T04:05:01.008Z,17.83
2018-05-27T04:07:41.653Z,16.97
2018-05-27T04:10:09.855Z,17.00
2018-05-27T04:12:37.528Z,16.63
2018-05-27T04:15:06.239Z,15.70
2018-05-27T04:17:34.005Z,16.53
2018-05-27T04:20:02.640Z,16.17
2018-05-27T04:22:31.004Z,14.97
2018-05-27T04:25:00.014Z,16.50
2018-05-27T04:27:30.027Z,15.33
2018-05-27T04:29:57.693Z,14.23
2018-05-27T04:32:26.378Z,14.73
2018-05-27T04:34:54.817Z,14.50
2018-05-27T04:37:23.196Z,13.50
2018-05-27T04:39:51.167Z,14.03
2018-05-27T04:42:18.947Z,14.53
2018-05-27T04:44:49.228Z,14.83
2018-05-27T04:47:21.855Z,13.57
2018-05-27T04:49:54.792Z,14.47
2018-05-27T04:52:28.415Z,15.00
2018-05-27T04:54:56.387Z,15.10
2018-05-27T04:57:24.226Z,14.93
2018-05-27T04:59:52.173Z,15.97
2018-05-27T05:02:20.849Z,13.60
2018-05-27T05:04:49.940Z,13.33
2018-05-27T05:07:18.111Z,13.63
2018-05-27T05:09:47.000Z,14.33
2018-05-27T05:12:15.231Z,14.20
2018-05-27T05:14:43.923Z,13.43
2018-05-27T05:17:11.761Z,13.40
2018-05-27T05:19:40.325Z,13.40
2018-05-27T05:22:09.013Z,12.73
2018-05-27T05:24:36.695Z,12.53
2018-05-27T05:27:05.575Z,13.37
2018-05-27T05:29:34.008Z,12.73
2018-05-27T05:32:02.414Z,13.67
2018-05-27T05:34:30.265Z,15.57
2018-05-27T05:36:58.194Z,15.20
2018-05-27T05:39:27.071Z,14.13
2018-05-27T05:41:54.817Z,14.50
2018-05-27T05:44:22.812Z,14.33
2018-05-27T05:46:50.532Z,14.57
2018-05-27T05:49:18.651Z,14.70
2018-05-27T05:51:46.553Z,14.23
2018-05-27T05:54:15.042Z,14.97
2018-05-27T05:56:44.118Z,14.93
2018-05-27T05:59:12.092Z,14.90
2018-05-27T06:01:39.828Z,14.30
2018-05-27T06:04:08.535Z,14.57
2018-05-27T06:06:36.216Z,15.17
2018-05-27T06:09:05.416Z,14.00
2018-05-27T06:11:33.733Z,14.40
2018-05-27T06:14:01.561Z,13.13
2018-05-27T06:16:29.229Z,13.60
2018-05-27T06:18:57.994Z,12.23
2018-05-27T06:21:26.085Z,12.47
2018-05-27T06:23:54.589Z,12.33
2018-05-27T06:26:22.668Z,11.53
2018-05-27T06:28:50.824Z,11.00
2018-05-27T06:31:18.915Z,10.33
2018-05-27T06:33:47.580Z,10.07
2018-05-27T06:36:16.265Z,8.90
2018-05-27T06:38:44.999Z,9.50
2018-05-27T06:41:13.854Z,10.13
2018-05-27T06:43:42.128Z,9.70
2018-05-27T06:46:10.389Z,10.07
2018-05-27T06:48:38.582Z,9.20
2018-05-27T06:51:06.413Z,10.80
2018-05-27T06:53:34.596Z,8.93
2018-05-27T06:56:02.776Z,9.13
2018-05-27T06:58:30.841Z,8.90
2018-05-27T07:00:58.798Z,9.40
2018-05-27T07:03:27.877Z,10.17
2018-05-27T07:05:56.978Z,9.83
2018-05-27T07:08:24.681Z,8.73
2018-05-27T07:10:53.371Z,9.07
2018-05-27T07:13:21.941Z,8.10
2018-05-27T07:15:50.624Z,9.20
2018-05-27T07:18:18.903Z,8.50
2018-05-27T07:20:47.040Z,7.90
2018-05-27T07:23:15.467Z,8.27
2018-05-27T07:25:43.336Z,7.10
2018-05-27T07:28:11.683Z,7.63
2018-05-27T07:30:40.137Z,7.17
2018-05-27T07:33:07.961Z,7.30
2018-05-27T07:35:35.806Z,7.23
2018-05-27T07:38:03.786Z,7.40
2018-05-27T07:40:31.815Z,7.03
2018-05-27T07:42:59.538Z,6.40
2018-05-27T07:45:35.972Z,7.20
2018-05-27T07:48:04.153Z,6.73
2018-05-27T07:50:32.509Z,7.33
2018-05-27T07:53:00.211Z,6.60
2018-05-27T07:55:28.257Z,7.80
2018-05-27T07:57:56.366Z,8.13
2018-05-27T08:00:24.061Z,6.40
2018-05-27T08:02:51.840Z,6.60
2018-05-27T08:05:19.549Z,6.40
2018-05-27T08:07:47.215Z,6.73
2018-05-27T08:10:14.904Z,6.50
2018-05-27T08:12:42.576Z,6.63
2018-05-27T08:15:10.265Z,6.60
2018-05-27T08:17:37.949Z,5.93
2018-05-27T08:20:05.729Z,5.87
2018-05-27T08:22:33.450Z,6.00
2018-05-27T08:25:01.117Z,5.50
2018-05-27T08:27:29.289Z,5.90
2018-05-27T08:29:57.017Z,5.67
2018-05-27T08:32:24.753Z,5.73
2018-05-27T08:34:52.416Z,5.30
2018-05-27T08:37:20.102Z,5.23
2018-05-27T08:39:47.797Z,5.50
2018-05-27T08:42:15.505Z,3.80
2018-05-27T08:44:43.376Z,4.40
2018-05-27T08:47:11.065Z,4.63
2018-05-27T08:49:38.756Z,4.27
2018-05-27T08:52:06.463Z,3.50
2018-05-27T08:54:34.162Z,3.97
2018-05-27T08:57:01.851Z,3.70
2018-05-27T08:59:29.544Z,4.10
2018-05-27T09:01:57.224Z,3.33
2018-05-27T09:04:24.920Z,3.03
2018-05-27T09:06:52.624Z,2.60
2018-05-27T09:09:20.320Z,3.10
2018-05-27T09:11:47.992Z,3.40
2018-05-27T09:14:15.669Z,3.43
2018-05-27T09:16:43.345Z,3.50
2018-05-27T09:19:11.016Z,2.80
2018-05-27T09:21:39.101Z,3.27
2018-05-27T09:24:07.214Z,2.73
2018-05-27T09:26:34.904Z,2.80
2018-05-27T09:29:02.570Z,2.80
2018-05-27T09:31:30.273Z,2.92
2018-05-27T09:33:57.940Z,2.47
2018-05-27T09:36:25.627Z,2.03
2018-05-27T09:38:53.306Z,3.10
2018-05-27T09:41:20.989Z,2.62
2018-05-27T09:43:48.684Z,2.90
2018-05-27T09:46:16.395Z,2.40
2018-05-27T09:48:44.114Z,2.30
2018-05-27T09:51:11.804Z,2.65
2018-05-27T09:53:39.481Z,2.80
2018-05-27T09:56:07.401Z,2.72
2018-05-27T09:58:35.121Z,2.47
2018-05-27T10:01:02.817Z,2.30
2018-05-27T10:03:30.940Z,2.28
2018-05-27T10:05:58.637Z,2.35
2018-05-27T10:08:26.297Z,2.55
2018-05-27T10:10:53.986Z,2.47
2018-05-27T10:13:21.681Z,3.43
2018-05-27T10:15:49.371Z,3.25
2018-05-27T10:18:17.223Z,3.70
2018-05-27T10:20:44.894Z,4.30
2018-05-27T10:23:12.565Z,3.40
2018-05-27T10:25:40.291Z,3.30
2018-05-27T10:28:07.974Z,3.20
2018-05-27T10:30:35.663Z,3.70
2018-05-27T10:33:03.326Z,3.60
2018-05-27T10:35:31.050Z,3.97
2018-05-27T10:37:58.750Z,3.93
2018-05-27T10:40:26.524Z,3.90
2018-05-27T10:42:54.196Z,4.00
2018-05-27T10:45:22.262Z,4.27
2018-05-27T10:47:50.342Z,3.90
2018-05-27T10:50:18.426Z,4.20
2018-05-27T10:52:46.292Z,4.30
2018-05-27T10:55:13.978Z,3.73
2018-05-27T10:57:41.657Z,4.17
2018-05-27T11:00:09.346Z,3.60
2018-05-27T11:02:37.025Z,3.93
2018-05-27T11:05:05.146Z,4.00
2018-05-27T11:07:32.845Z,3.80
2018-05-27T11:10:00.539Z,4.37
2018-05-27T11:12:28.241Z,4.00
2018-05-27T11:14:55.996Z,4.13
2018-05-27T11:17:23.682Z,3.97
2018-05-27T11:19:51.404Z,5.00
2018-05-27T11:22:19.534Z,5.47
2018-05-27T11:24:47.178Z,5.30
2018-05-27T11:27:14.951Z,5.00
2018-05-27T11:29:42.666Z,5.27
2018-05-27T11:32:10.531Z,6.37
2018-05-27T11:34:38.596Z,6.27
2018-05-27T11:37:06.297Z,6.70
2018-05-27T11:39:34.041Z,5.50
2018-05-27T11:42:01.752Z,6.57
2018-05-27T11:44:29.426Z,6.67
2018-05-27T11:46:57.454Z,6.10
2018-05-27T11:49:25.196Z,5.80
2018-05-27T11:51:52.891Z,5.73
2018-05-27T11:54:20.556Z,6.03
2018-05-27T11:56:48.238Z,6.00
2018-05-27T11:59:15.917Z,6.20
2018-05-27T12:01:43.594Z,6.10
2018-05-27T12:04:11.654Z,5.93
2018-05-27T12:06:39.344Z,5.43
2018-05-27T12:09:07.475Z,5.80
2018-05-27T12:11:35.166Z,5.97
2018-05-27T12:14:03.208Z,6.67
2018-05-27T12:16:30.863Z,6.00
2018-05-27T12:18:58.504Z,6.90
2018-05-27T12:21:26.184Z,6.13
2018-05-27T12:23:53.845Z,6.40
2018-05-27T12:26:48.805Z,5.73
2018-05-27T12:29:16.451Z,6.20
2018-05-27T12:31:44.520Z,5.63
2018-05-27T12:34:12.567Z,5.60
2018-05-27T12:36:40.290Z,5.43
2018-05-27T12:39:07.973Z,4.70
2018-05-27T12:41:35.642Z,4.80
2018-05-27T12:44:03.294Z,5.10
2018-05-27T12:46:30.961Z,5.40
2018-05-27T12:48:58.604Z,5.60
2018-05-27T12:51:26.264Z,6.23
2018-05-27T12:53:53.916Z,5.93
2018-05-27T12:56:21.574Z,5.80
2018-05-27T12:58:49.221Z,6.17
2018-05-27T13:01:17.284Z,5.07
2018-05-27T13:03:45.316Z,5.27
2018-05-27T13:06:12.988Z,5.50
2018-05-27T13:08:40.637Z,4.80
2018-05-27T13:11:08.289Z,4.77
2018-05-27T13:13:35.945Z,5.30
2018-05-27T13:16:03.603Z,4.90
2018-05-27T13:18:31.287Z,4.67
2018-05-27T13:20:58.984Z,5.23
2018-05-27T13:23:26.665Z,4.13
2018-05-27T13:25:54.443Z,4.60
2018-05-27T13:28:22.284Z,4.03
2018-05-27T13:30:50.014Z,4.80
2018-05-27T13:33:17.718Z,5.40
2018-05-27T13:35:45.771Z,5.27
2018-05-27T13:38:13.561Z,4.60
2018-05-27T13:40:41.253Z,4.40
2018-05-27T13:43:08.988Z,7.90
2018-05-27T13:45:36.664Z,5.00
2018-05-27T13:48:04.312Z,5.40
2018-05-27T13:50:32.357Z,5.30
2018-05-27T13:53:00.435Z,4.80
2018-05-27T13:55:28.565Z,5.07
2018-05-27T13:57:56.193Z,4.30
2018-05-27T14:00:23.910Z,4.90
2018-05-27T14:02:51.607Z,5.60
2018-05-27T14:05:19.376Z,4.80
2018-05-27T14:07:47.071Z,4.57
2018-05-27T14:10:14.788Z,4.57
2018-05-27T14:12:42.393Z,4.77
2018-05-27T14:15:10.731Z,4.63
2018-05-27T14:17:38.768Z,4.67
2018-05-27T14:20:06.520Z,5.13
2018-05-27T14:22:34.189Z,5.10
2018-05-27T14:25:01.843Z,5.37
2018-05-27T14:27:29.581Z,5.33
2018-05-27T14:29:57.332Z,5.33
2018-05-27T14:32:25.015Z,4.23
2018-05-27T14:34:52.662Z,5.20
2018-05-27T14:37:20.410Z,3.83
2018-05-27T14:39:48.511Z,4.00
2018-05-27T14:42:16.187Z,3.90
2018-05-27T14:44:43.919Z,4.57
2018-05-27T14:47:11.574Z,4.60
2018-05-27T14:49:39.773Z,4.97
2018-05-27T14:52:07.453Z,5.03
2018-05-27T14:54:35.096Z,5.60
2018-05-27T14:57:02.750Z,5.27
2018-05-27T14:59:30.435Z,5.57
2018-05-27T15:01:58.161Z,5.27
2018-05-27T15:04:26.289Z,6.07
2018-05-27T15:06:53.988Z,6.03
2018-05-27T15:09:22.079Z,5.30
2018-05-27T15:11:49.762Z,6.07
2018-05-27T15:14:17.535Z,5.33
2018-05-27T15:16:45.230Z,5.90
2018-05-27T15:19:12.880Z,6.00
2018-05-27T15:21:40.556Z,5.87
2018-05-27T15:24:08.218Z,5.63
2018-05-27T15:26:35.915Z,6.13
2018-05-27T15:29:03.560Z,6.30
2018-05-27T15:31:31.620Z,5.60
2018-05-27T15:33:59.317Z,6.97
2018-05-27T15:36:27.005Z,5.30
2018-05-27T15:38:54.648Z,5.83
2018-05-27T15:41:22.385Z,5.83
2018-05-27T15:43:50.453Z,6.03
2018-05-27T15:46:18.511Z,6.50
2018-05-27T15:48:46.207Z,5.40
2018-05-27T15:51:13.873Z,5.80
2018-05-27T15:53:41.519Z,6.43
2018-05-27T15:56:09.200Z,6.40
2018-05-27T15:58:37.131Z,6.00
2018-05-27T16:01:04.828Z,5.77
2018-05-27T16:03:32.480Z,6.20
2018-05-27T16:06:00.139Z,6.13
2018-05-27T16:08:28.176Z,6.30
2018-05-27T16:10:55.841Z,5.67
2018-05-27T16:13:23.983Z,5.70
2018-05-27T16:15:51.916Z,5.67
2018-05-27T16:18:19.724Z,5.60
2018-05-27T16:20:47.376Z,6.43
2018-05-27T16:23:15.101Z,6.27
2018-05-27T16:25:43.247Z,6.10
2018-05-27T16:28:10.930Z,5.83
2018-05-27T16:30:39.113Z,6.23
2018-05-27T16:33:07.150Z,5.57
2018-05-27T16:35:34.820Z,6.40
2018-05-27T16:38:02.700Z,6.93
2018-05-27T16:40:31.003Z,6.90
2018-05-27T16:42:58.725Z,7.23
2018-05-27T16:45:26.406Z,6.30
2018-05-27T16:47:54.485Z,7.40
2018-05-27T16:50:22.537Z,7.13
2018-05-27T16:52:50.217Z,6.67
2018-05-27T16:55:18.440Z,6.70
2018-05-27T16:57:46.164Z,7.30
2018-05-27T17:00:14.401Z,6.70
2018-05-27T17:02:42.114Z,7.57
2018-05-27T17:05:10.635Z,5.63
2018-05-27T17:07:38.301Z,7.30
2018-05-27T17:10:06.017Z,7.40
2018-05-27T17:12:33.812Z,7.00
2018-05-27T17:15:01.572Z,7.57
2018-05-27T17:17:29.310Z,7.10
2018-05-27T17:19:57.101Z,7.00
2018-05-27T17:22:24.779Z,7.50
2018-05-27T17:24:52.429Z,7.40
2018-05-27T17:27:20.165Z,6.90
2018-05-27T17:29:47.910Z,7.53
2018-05-27T17:32:15.996Z,7.80
2018-05-27T17:34:43.653Z,8.00
2018-05-27T17:37:11.349Z,7.10
2018-05-27T17:39:39.086Z,7.53
2018-05-27T17:42:06.749Z,8.10
2018-05-27T17:44:34.510Z,7.53
2018-05-27T17:47:02.390Z,8.40
2018-05-27T17:49:30.094Z,8.77
2018-05-27T17:51:57.764Z,8.53
2018-05-27T17:54:25.657Z,9.07
2018-05-27T17:56:53.308Z,8.97
2018-05-27T17:59:20.972Z,8.77
2018-05-27T18:01:48.635Z,9.07
2018-05-27T18:04:16.748Z,9.73
2018-05-27T18:06:44.349Z,7.97
2018-05-27T18:09:12.330Z,9.17
2018-05-27T18:11:40.261Z,8.93
2018-05-27T18:14:07.915Z,9.50
2018-05-27T18:16:35.573Z,8.80
2018-05-27T18:19:03.358Z,9.67
2018-05-27T18:21:31.012Z,8.70
2018-05-27T18:23:58.652Z,9.03
2018-05-27T18:26:26.314Z,9.20
2018-05-27T18:28:53.965Z,9.23
2018-05-27T18:31:21.660Z,9.23
2018-05-27T18:33:49.313Z,8.50
2018-05-27T18:36:16.980Z,9.20
2018-05-27T18:38:44.714Z,9.40
2018-05-27T18:41:12.767Z,9.87
2018-05-27T18:43:40.973Z,9.63
2018-05-27T18:46:08.762Z,9.70
2018-05-27T18:48:36.878Z,9.73
2018-05-27T18:51:04.590Z,9.37
2018-05-27T18:53:32.264Z,10.37
2018-05-27T18:55:59.917Z,8.90
2018-05-27T18:58:28.034Z,9.10
2018-05-27T19:00:56.131Z,9.00
2018-05-27T19:03:23.882Z,8.70
2018-05-27T19:05:52.048Z,9.97
2018-05-27T19:08:20.244Z,9.87
2018-05-27T19:10:47.917Z,9.90
2018-05-27T19:13:15.568Z,10.13
2018-05-27T19:15:43.271Z,10.00
2018-05-27T19:18:10.925Z,10.23
2018-05-27T19:20:38.577Z,10.60
2018-05-27T19:23:06.240Z,10.43
2018-05-27T19:25:33.916Z,11.03
2018-05-27T19:28:01.640Z,10.50
2018-05-27T19:30:29.681Z,12.23
2018-05-27T19:32:57.364Z,10.93
2018-05-27T19:35:25.742Z,11.97
2018-05-27T19:37:53.816Z,12.77
2018-05-27T19:40:21.888Z,11.87
2018-05-27T19:42:49.637Z,12.70
2018-05-27T19:45:17.326Z,11.63
2018-05-27T19:47:45.044Z,11.90
2018-05-27T19:50:12.695Z,10.87
2018-05-27T19:52:40.450Z,11.60
2018-05-27T19:55:08.143Z,10.00
2018-05-27T19:57:35.915Z,11.03
2018-05-27T20:00:03.569Z,10.97
2018-05-27T20:02:31.269Z,11.87
2018-05-27T20:04:58.920Z,11.80
2018-05-27T20:07:26.983Z,11.30
2018-05-27T20:09:54.681Z,11.33
2018-05-27T20:12:22.331Z,11.40
2018-05-27T20:14:49.973Z,11.17
2018-05-27T20:17:18.045Z,11.07
2018-05-27T20:19:45.719Z,10.60
2018-05-27T20:22:13.379Z,10.60
2018-05-27T20:24:41.035Z,11.00
2018-05-27T20:27:08.802Z,11.10
2018-05-27T20:29:36.841Z,10.50
2018-05-27T20:32:04.528Z,12.00
2018-05-27T20:34:32.590Z,10.50
2018-05-27T20:37:00.675Z,11.17
2018-05-27T20:39:28.748Z,10.13
2018-05-27T20:41:56.399Z,10.90
2018-05-27T20:44:24.046Z,10.57
2018-05-27T20:46:51.705Z,10.77
2018-05-27T20:49:19.356Z,10.77
2018-05-27T20:51:47.021Z,11.30
2018-05-27T20:54:14.706Z,10.87
2018-05-27T20:56:42.844Z,11.43
2018-05-27T20:59:10.689Z,11.20
2018-05-27T21:01:38.350Z,10.60
2018-05-27T21:04:06.075Z,9.40
2018-05-27T21:06:33.745Z,11.13
2018-05-27T21:09:01.843Z,9.70
2018-05-27T21:11:29.511Z,10.97
2018-05-27T21:13:57.169Z,10.80
2018-05-27T21:16:24.846Z,10.43
2018-05-27T21:18:52.491Z,10.20
2018-05-27T21:21:20.181Z,11.23
2018-05-27T21:23:47.862Z,10.50
2018-05-27T21:26:15.537Z,10.00
2018-05-27T21:28:43.220Z,11.70
2018-05-27T21:31:10.890Z,10.50
2018-05-27T21:33:38.573Z,11.03
2018-05-27T21:36:06.273Z,11.00
2018-05-27T21:38:33.950Z,10.53
2018-05-27T21:41:01.631Z,10.40
2018-05-27T21:43:29.710Z,10.67
2018-05-27T21:45:57.772Z,10.47
2018-05-27T21:48:25.498Z,11.13
2018-05-27T21:50:53.158Z,11.70
2018-05-27T21:53:20.832Z,11.53
2018-05-27T21:55:48.517Z,10.70
2018-05-27T21:58:16.556Z,10.87
2018-05-27T22:00:44.213Z,11.47
2018-05-27T22:03:12.030Z,12.90
2018-05-27T22:05:39.709Z,11.60
2018-05-27T22:08:07.514Z,11.87
2018-05-27T22:10:35.239Z,12.13
2018-05-27T22:13:03.077Z,10.70
2018-05-27T22:15:31.147Z,12.17
2018-05-27T22:17:59.188Z,11.90
2018-05-27T22:20:26.894Z,12.13
2018-05-27T22:22:54.940Z,12.57
2018-05-27T22:25:22.604Z,12.03
2018-05-27T22:27:50.723Z,12.07
2018-05-27T22:30:18.753Z,13.67
2018-05-27T22:32:46.411Z,12.23
2018-05-27T22:35:14.606Z,12.60
2018-05-27T22:37:42.280Z,13.63
2018-05-27T22:40:09.956Z,12.77
2018-05-27T22:42:37.694Z,13.23
2018-05-27T22:45:05.850Z,12.57
2018-05-27T22:47:33.511Z,12.77
2018-05-27T22:50:01.588Z,12.80
2018-05-27T22:52:29.815Z,13.47
2018-05-27T22:54:57.487Z,13.10
2018-05-27T22:57:25.302Z,14.43
2018-05-27T22:59:53.362Z,13.97
2018-05-27T23:02:21.417Z,13.90
2018-05-27T23:04:49.198Z,13.40
2018-05-27T23:07:17.408Z,14.63
2018-05-27T23:09:45.591Z,14.30
2018-05-27T23:12:13.245Z,14.43
2018-05-27T23:14:41.006Z,13.90
2018-05-27T23:17:08.754Z,15.07
2018-05-27T23:19:36.833Z,14.30
2018-05-27T23:22:04.488Z,14.17
2018-05-27T23:24:32.554Z,14.50
2018-05-27T23:27:00.634Z,13.90
2018-05-27T23:29:28.282Z,14.67
2018-05-27T23:31:56.396Z,14.33
2018-05-27T23:34:24.085Z,14.70
2018-05-27T23:36:51.956Z,15.20
2018-05-27T23:39:19.655Z,14.13
2018-05-27T23:41:47.738Z,14.10
2018-05-27T23:44:15.509Z,14.53
2018-05-27T23:46:43.175Z,15.07
2018-05-27T23:49:10.830Z,15.50
2018-05-27T23:51:38.501Z,14.87
2018-05-27T23:54:06.160Z,14.50
2018-05-27T23:56:33.821Z,14.80
2018-05-27T23:59:01.548Z,14.70
